Time;durP1;ratioP1;P1;durP2;ratioP2;P2;SDS_P1;SDS_P2;PMS_P1;PMS_P2;Temp;Humidity;BMP_temperature;BMP_pressure;BME280_temperature;BME280_humidity;BME280_pressure;Samples;Min_cycle;Max_cycle;Signal;HPM_P1;HPM_P2
2023/04/18 00:02:07;;;;;;;;;;;7.80;1.00;;;;;;5051598;28;20379;-64
2023/04/18 00:04:34;;;;;;;;;;;7.80;1.00;;;;;;5051942;28;20418;-64
2023/04/18 00:07:00;;;;;;;;;;;7.70;1.40;;;;;;5051241;28;19920;-64
2023/04/18 00:09:27;;;;;;;;;;;7.70;99.90;;;;;;5049615;28;19929;-64
2023/04/18 00:11:53;;;;;;;;;;;7.60;99.90;;;;;;5049673;28;19966;-64
2023/04/18 00:14:21;;;;;;;;;;;7.50;1.00;;;;;;5050042;28;20283;-64
2023/04/18 00:16:48;;;;;;;;;;;7.50;99.90;;;;;;5048988;28;19921;-65
2023/04/18 00:19:14;;;;;;;;;;;7.40;99.90;;;;;;5051655;28;19921;-63
2023/04/18 00:21:43;;;;;;;;;;;7.40;1.00;;;;;;5052194;28;20349;-64
2023/04/18 00:24:10;;;;;;;;;;;7.40;99.90;;;;;;5054819;28;19925;-65
2023/04/18 00:26:36;;;;;;;;;;;7.40;99.90;;;;;;5054822;28;19928;-65
2023/04/18 00:29:03;;;;;;;;;;;7.40;99.90;;;;;;5055173;28;19978;-62
2023/04/18 00:31:31;;;;;;;;;;;7.40;1.00;;;;;;5051354;28;19921;-63
2023/04/18 00:33:57;;;;;;;;;;;7.30;1.00;;;;;;5055419;28;19925;-64
2023/04/18 00:36:24;;;;;;;;;;;7.30;1.00;;;;;;5054294;28;19921;-64
2023/04/18 00:38:51;;;;;;;;;;;7.30;99.90;;;;;;5051172;28;19921;-63
2023/04/18 00:41:17;;;;;;;;;;;7.20;99.90;;;;;;5055164;28;19920;-64
2023/04/18 00:43:44;;;;;;;;;;;7.20;2.60;;;;;;5055224;28;19970;-64
2023/04/18 00:46:10;;;;;;;;;;;7.20;99.90;;;;;;5050674;28;19966;-64
2023/04/18 00:48:38;;;;;;;;;;;7.10;99.90;;;;;;5054559;28;20475;-62
2023/04/18 00:51:06;;;;;;;;;;;7.10;1.00;;;;;;5054899;28;19928;-64
2023/04/18 00:53:32;;;;;;;;;;;7.10;99.90;;;;;;5054808;28;19990;-64
2023/04/18 00:55:59;;;;;;;;;;;7.00;31.90;;;;;;5050857;28;20434;-64
2023/04/18 00:58:26;;;;;;;;;;;7.00;99.90;;;;;;5055142;28;19927;-63
2023/04/18 01:00:53;;;;;;;;;;;7.00;51.70;;;;;;5050591;28;19967;-64
2023/04/18 01:03:21;;;;;;;;;;;6.90;99.90;;;;;;5054953;28;19965;-63
2023/04/18 01:05:49;;;;;;;;;;;6.90;1.00;;;;;;5055214;28;19931;-64
2023/04/18 01:08:16;;;;;;;;;;;6.90;1.00;;;;;;5054350;28;20354;-63
2023/04/18 01:10:43;;;;;;;;;;;6.80;1.00;;;;;;5050192;28;19943;-64
2023/04/18 01:13:11;;;;;;;;;;;6.80;1.00;;;;;;5056225;28;19940;-63
2023/04/18 01:15:39;;;;;;;;;;;6.80;1.00;;;;;;5049884;28;19921;-64
2023/04/18 01:18:07;;;;;;;;;;;6.70;12.00;;;;;;5054285;28;19970;-64
2023/04/18 01:20:35;;;;;;;;;;;6.70;17.60;;;;;;5053870;28;20394;-63
2023/04/18 01:23:03;;;;;;;;;;;6.70;17.40;;;;;;5053979;28;20367;-64
2023/04/18 01:25:30;;;;;;;;;;;6.70;19.70;;;;;;5047661;28;19924;-64
2023/04/18 01:27:58;;;;;;;;;;;6.70;21.50;;;;;;5054045;28;19921;-64
2023/04/18 01:30:24;;;;;;;;;;;6.60;25.80;;;;;;5047123;28;19920;-63
2023/04/18 01:32:51;;;;;;;;;;;6.60;35.60;;;;;;5053753;28;19943;-65
2023/04/18 01:35:17;;;;;;;;;;;6.60;36.60;;;;;;5053779;28;19920;-65
2023/04/18 01:37:44;;;;;;;;;;;6.60;40.30;;;;;;5053636;28;19920;-65
2023/04/18 01:40:11;;;;;;;;;;;6.50;46.70;;;;;;5049813;28;19921;-63
2023/04/18 01:42:39;;;;;;;;;;;6.50;45.60;;;;;;5053962;28;19975;-64
2023/04/18 01:45:06;;;;;;;;;;;6.50;53.00;;;;;;5049357;28;19921;-63
2023/04/18 01:47:32;;;;;;;;;;;6.40;50.20;;;;;;5053661;28;19983;-63
2023/04/18 01:49:59;;;;;;;;;;;6.40;53.60;;;;;;5053952;28;19920;-65
2023/04/18 01:52:26;;;;;;;;;;;6.40;60.60;;;;;;5053313;28;19978;-64
2023/04/18 01:54:53;;;;;;;;;;;6.30;62.70;;;;;;5049577;28;19927;-64
2023/04/18 01:57:19;;;;;;;;;;;6.30;66.00;;;;;;5053507;28;20335;-64
2023/04/18 01:59:47;;;;;;;;;;;6.20;73.50;;;;;;5049710;28;19921;-66
2023/04/18 02:02:13;;;;;;;;;;;6.20;75.50;;;;;;5053445;28;20338;-64
2023/04/18 02:04:40;;;;;;;;;;;6.30;76.40;;;;;;5053708;28;19921;-64
2023/04/18 02:07:06;;;;;;;;;;;6.30;71.60;;;;;;5053569;28;19921;-64
2023/04/18 02:09:33;;;;;;;;;;;6.20;75.10;;;;;;5051358;28;20295;-63
2023/04/18 02:12:01;;;;;;;;;;;6.20;73.00;;;;;;5053858;28;19920;-64
2023/04/18 02:14:30;;;;;;;;;;;6.20;79.20;;;;;;5051264;28;20276;-63
2023/04/18 02:16:57;;;;;;;;;;;6.10;85.00;;;;;;5050877;28;19920;-64
2023/04/18 02:19:24;;;;;;;;;;;6.10;79.60;;;;;;5052734;28;20367;-64
2023/04/18 02:21:51;;;;;;;;;;;6.10;81.00;;;;;;5053156;28;19920;-64
2023/04/18 02:24:17;;;;;;;;;;;6.10;78.00;;;;;;5052174;28;20387;-63
2023/04/18 02:26:44;;;;;;;;;;;6.10;78.00;;;;;;5052705;28;19974;-63
2023/04/18 02:29:11;;;;;;;;;;;6.10;85.30;;;;;;5052155;28;19921;-64
2023/04/18 02:31:39;;;;;;;;;;;6.00;81.40;;;;;;5048967;28;19921;-64
2023/04/18 02:34:07;;;;;;;;;;;6.00;79.10;;;;;;5053103;28;20445;-64
2023/04/18 02:36:34;;;;;;;;;;;6.00;81.00;;;;;;5052689;28;19924;-64
2023/04/18 02:39:00;;;;;;;;;;;6.10;69.60;;;;;;5052720;28;19924;-64
2023/04/18 02:41:27;;;;;;;;;;;6.00;73.40;;;;;;5048308;28;19925;-64
2023/04/18 02:43:53;;;;;;;;;;;6.00;75.60;;;;;;5052779;28;19921;-64
2023/04/18 02:46:20;;;;;;;;;;;6.00;74.20;;;;;;5047115;28;19925;-64
2023/04/18 02:48:46;;;;;;;;;;;6.00;77.00;;;;;;5052859;28;20318;-64
2023/04/18 02:51:14;;;;;;;;;;;6.00;83.10;;;;;;5052713;28;19921;-64
2023/04/18 02:53:41;;;;;;;;;;;5.90;83.20;;;;;;5052320;28;19921;-64
2023/04/18 02:56:07;;;;;;;;;;;6.00;86.20;;;;;;5048454;28;19921;-64
2023/04/18 02:58:35;;;;;;;;;;;6.00;82.20;;;;;;5052334;28;19979;-64
2023/04/18 03:01:01;;;;;;;;;;;6.00;80.90;;;;;;5047697;28;19928;-65
2023/04/18 03:03:28;;;;;;;;;;;6.00;74.60;;;;;;5051973;28;19921;-65
2023/04/18 03:05:54;;;;;;;;;;;6.00;77.00;;;;;;5051667;28;20376;-64
2023/04/18 03:08:22;;;;;;;;;;;6.00;78.00;;;;;;5052085;28;19921;-64
2023/04/18 03:10:49;;;;;;;;;;;5.90;84.00;;;;;;5048916;28;19920;-64
2023/04/18 03:13:16;;;;;;;;;;;5.90;88.80;;;;;;5052217;28;19921;-65
2023/04/18 03:15:42;;;;;;;;;;;5.90;92.10;;;;;;5048108;28;19921;-65
2023/04/18 03:18:11;;;;;;;;;;;5.80;95.20;;;;;;5052191;28;19920;-63
2023/04/18 03:20:37;;;;;;;;;;;5.90;94.60;;;;;;5052109;28;19975;-64
2023/04/18 03:23:04;;;;;;;;;;;5.90;92.60;;;;;;5052401;28;19921;-64
2023/04/18 03:25:33;;;;;;;;;;;5.90;95.10;;;;;;5047953;28;19975;-64
2023/04/18 03:27:59;;;;;;;;;;;5.90;95.40;;;;;;5049151;28;19925;-64
2023/04/18 03:30:26;;;;;;;;;;;5.80;97.20;;;;;;5046840;28;19990;-63
2023/04/18 03:32:54;;;;;;;;;;;5.80;99.50;;;;;;5052388;28;19921;-65
2023/04/18 03:35:21;;;;;;;;;;;5.90;99.30;;;;;;5052210;28;20012;-65
2023/04/18 03:37:47;;;;;;;;;;;5.90;95.20;;;;;;5051868;28;20362;-64
2023/04/18 03:40:14;;;;;;;;;;;5.90;97.20;;;;;;5047455;28;19921;-64
2023/04/18 03:42:42;;;;;;;;;;;5.80;96.70;;;;;;5048044;28;19925;-64
2023/04/18 03:45:09;;;;;;;;;;;5.80;99.90;;;;;;5044226;28;19971;-64
2023/04/18 03:47:35;;;;;;;;;;;5.80;99.90;;;;;;5052209;28;19928;-64
2023/04/18 03:50:02;;;;;;;;;;;5.70;99.90;;;;;;5052060;28;19928;-63
2023/04/18 03:52:28;;;;;;;;;;;5.70;99.90;;;;;;5051638;28;19967;-61
2023/04/18 03:54:55;;;;;;;;;;;5.80;99.90;;;;;;5045661;28;19921;-64
2023/04/18 03:57:21;;;;;;;;;;;5.80;99.90;;;;;;5052869;28;20515;-65
2023/04/18 03:59:49;;;;;;;;;;;5.70;99.90;;;;;;5051611;28;19925;-63
2023/04/18 04:02:16;;;;;;;;;;;5.70;99.90;;;;;;5055903;28;19964;-64
2023/04/18 04:04:42;;;;;;;;;;;5.70;99.90;;;;;;5056619;28;19974;-64
2023/04/18 04:07:09;;;;;;;;;;;5.70;99.90;;;;;;5056622;28;19967;-64
2023/04/18 04:09:36;;;;;;;;;;;5.70;99.90;;;;;;5050751;28;19928;-64
2023/04/18 04:12:02;;;;;;;;;;;5.70;99.90;;;;;;5053848;28;19920;-64
2023/04/18 04:14:29;;;;;;;;;;;5.60;99.90;;;;;;5054375;28;19928;-65
2023/04/18 04:16:57;;;;;;;;;;;5.70;99.90;;;;;;5052654;28;19928;-64
2023/04/18 04:19:23;;;;;;;;;;;5.70;99.90;;;;;;5055580;28;19920;-64
2023/04/18 04:21:50;;;;;;;;;;;5.70;99.90;;;;;;5053022;28;20391;-64
2023/04/18 04:24:16;;;;;;;;;;;5.80;99.90;;;;;;5054426;28;19979;-64
2023/04/18 04:26:43;;;;;;;;;;;5.90;99.90;;;;;;5051472;28;20330;-64
2023/04/18 04:29:09;;;;;;;;;;;5.90;99.90;;;;;;5054668;28;19920;-64
2023/04/18 04:31:36;;;;;;;;;;;6.00;99.90;;;;;;5051635;28;19935;-64
2023/04/18 04:34:05;;;;;;;;;;;6.00;99.90;;;;;;5051602;28;19928;-63
2023/04/18 04:36:32;;;;;;;;;;;6.10;99.90;;;;;;5055146;28;19921;-67
2023/04/18 04:38:58;;;;;;;;;;;6.10;99.90;;;;;;5054830;28;19925;-63
2023/04/18 04:41:25;;;;;;;;;;;6.10;99.90;;;;;;5051077;28;19970;-62
2023/04/18 04:43:52;;;;;;;;;;;6.20;99.90;;;;;;5050640;28;20441;-63
2023/04/18 04:46:19;;;;;;;;;;;6.20;99.90;;;;;;5049303;28;19920;-62
2023/04/18 04:48:46;;;;;;;;;;;6.20;99.90;;;;;;5053954;28;19920;-64
2023/04/18 04:51:13;;;;;;;;;;;6.20;99.90;;;;;;5054958;28;19971;-63
2023/04/18 04:53:40;;;;;;;;;;;6.20;99.90;;;;;;5052762;28;20307;-64
2023/04/18 04:56:08;;;;;;;;;;;6.20;99.90;;;;;;5050730;28;19925;-64
2023/04/18 04:58:34;;;;;;;;;;;6.20;99.90;;;;;;5053531;28;19924;-64
2023/04/18 05:01:01;;;;;;;;;;;6.20;99.90;;;;;;5049431;28;20022;-63
2023/04/18 05:03:27;;;;;;;;;;;6.20;99.90;;;;;;5050385;28;20303;-63
2023/04/18 05:05:54;;;;;;;;;;;6.20;99.90;;;;;;5054489;28;19925;-64
2023/04/18 05:08:22;;;;;;;;;;;6.20;99.90;;;;;;5054817;28;20345;-64
2023/04/18 05:10:48;;;;;;;;;;;6.20;99.90;;;;;;5050010;28;19933;-64
2023/04/18 05:13:15;;;;;;;;;;;6.20;99.90;;;;;;5054312;28;19928;-65
2023/04/18 05:15:41;;;;;;;;;;;6.40;99.90;;;;;;5049700;28;19920;-63
2023/04/18 05:18:08;;;;;;;;;;;6.30;99.90;;;;;;5053829;28;19920;-63
2023/04/18 05:20:34;;;;;;;;;;;6.30;99.90;;;;;;5054102;28;19971;-64
2023/04/18 05:23:01;;;;;;;;;;;6.30;99.90;;;;;;5053980;28;20658;-64
2023/04/18 05:25:30;;;;;;;;;;;6.30;99.90;;;;;;5050341;28;19921;-64
2023/04/18 05:27:56;;;;;;;;;;;6.30;99.90;;;;;;5053861;28;19951;-65
2023/04/18 05:30:23;;;;;;;;;;;6.40;99.90;;;;;;5050764;28;19924;-64
2023/04/18 05:32:49;;;;;;;;;;;6.40;99.90;;;;;;5052664;28;19950;-63
2023/04/18 05:35:16;;;;;;;;;;;7.00;99.90;;;;;;5053644;28;20367;-62
2023/04/18 05:37:42;;;;;;;;;;;6.60;99.90;;;;;;5053568;28;19921;-62
2023/04/18 05:40:10;;;;;;;;;;;6.60;99.90;;;;;;5041746;28;19921;-63
2023/04/18 05:42:38;;;;;;;;;;;6.60;99.90;;;;;;5054016;28;19920;-63
2023/04/18 05:45:05;;;;;;;;;;;6.70;99.90;;;;;;5049308;28;19920;-62
2023/04/18 05:47:32;;;;;;;;;;;6.70;99.90;;;;;;5053119;28;19970;-63
2023/04/18 05:49:58;;;;;;;;;;;6.60;99.90;;;;;;5053719;28;20011;-62
2023/04/18 05:52:25;;;;;;;;;;;6.70;99.90;;;;;;5053250;28;19951;-62
2023/04/18 05:54:52;;;;;;;;;;;6.70;99.90;;;;;;5050526;28;19924;-63
2023/04/18 05:57:18;;;;;;;;;;;6.70;99.90;;;;;;5052357;28;20264;-63
2023/04/18 05:59:46;;;;;;;;;;;6.70;99.90;;;;;;5050766;28;19925;-61
2023/04/18 06:02:12;;;;;;;;;;;6.70;99.90;;;;;;5052162;28;19993;-63
2023/04/18 06:04:39;;;;;;;;;;;6.50;99.90;;;;;;5049570;28;20287;-63
2023/04/18 06:07:06;;;;;;;;;;;6.50;99.90;;;;;;5052988;28;19966;-65
2023/04/18 06:09:32;;;;;;;;;;;6.50;99.90;;;;;;5046591;28;19921;-64
2023/04/18 06:12:00;;;;;;;;;;;6.50;99.90;;;;;;5053046;28;19966;-63
2023/04/18 06:14:27;;;;;;;;;;;6.60;99.90;;;;;;5052604;28;19927;-63
2023/04/18 06:16:54;;;;;;;;;;;6.70;99.90;;;;;;5050290;28;20395;-62
2023/04/18 06:19:21;;;;;;;;;;;6.70;99.90;;;;;;5054829;28;19928;-63
2023/04/18 06:21:48;;;;;;;;;;;6.70;99.90;;;;;;5054622;28;19921;-63
2023/04/18 06:24:14;;;;;;;;;;;6.70;99.90;;;;;;5055463;28;19921;-64
2023/04/18 06:26:41;;;;;;;;;;;6.80;99.90;;;;;;5056038;28;19924;-65
2023/04/18 06:29:07;;;;;;;;;;;6.80;99.90;;;;;;5052931;28;19924;-64
2023/04/18 06:31:34;;;;;;;;;;;6.90;99.90;;;;;;5048080;28;19982;-63
2023/04/18 06:34:02;;;;;;;;;;;7.10;99.90;;;;;;5052824;28;20338;-64
2023/04/18 06:36:28;;;;;;;;;;;7.10;99.90;;;;;;5043922;28;19970;-61
2023/04/18 06:38:55;;;;;;;;;;;7.10;99.90;;;;;;5051102;28;19924;-63
2023/04/18 06:41:21;;;;;;;;;;;7.10;99.90;;;;;;5049074;28;20465;-65
2023/04/18 06:43:48;;;;;;;;;;;8.00;99.90;;;;;;5047962;28;19921;-62
2023/04/18 06:46:14;;;;;;;;;;;7.20;99.90;;;;;;5049202;28;19921;-62
2023/04/18 06:48:41;;;;;;;;;;;7.20;99.90;;;;;;5052321;28;19924;-62
2023/04/18 06:51:09;;;;;;;;;;;7.20;99.90;;;;;;5053395;28;19920;-64
2023/04/18 06:53:35;;;;;;;;;;;7.10;99.90;;;;;;5052711;28;19921;-61
2023/04/18 06:56:02;;;;;;;;;;;7.10;99.90;;;;;;5051351;28;20013;-60
2023/04/18 06:58:29;;;;;;;;;;;7.10;99.90;;;;;;5052055;28;19974;-61
2023/04/18 07:00:55;;;;;;;;;;;7.20;99.90;;;;;;5044937;28;20334;-63
2023/04/18 07:03:22;;;;;;;;;;;7.30;99.90;;;;;;5050703;28;19924;-66
2023/04/18 07:05:49;;;;;;;;;;;7.40;99.90;;;;;;5051732;28;19963;-62
2023/04/18 07:08:17;;;;;;;;;;;7.50;99.90;;;;;;5051791;28;20007;-62
2023/04/18 07:10:43;;;;;;;;;;;7.50;99.90;;;;;;5049774;28;20435;-63
2023/04/18 07:13:10;;;;;;;;;;;7.40;99.90;;;;;;5052897;28;19929;-65
2023/04/18 07:15:36;;;;;;;;;;;7.40;99.90;;;;;;5048966;28;19921;-64
2023/04/18 07:18:03;;;;;;;;;;;7.40;99.90;;;;;;5051625;28;20315;-62
2023/04/18 07:20:29;;;;;;;;;;;7.40;99.90;;;;;;5051938;28;19920;-64
2023/04/18 07:22:56;;;;;;;;;;;7.40;99.90;;;;;;5052193;28;19971;-65
2023/04/18 07:25:23;;;;;;;;;;;7.40;99.90;;;;;;5048268;28;20364;-63
2023/04/18 07:27:50;;;;;;;;;;;7.50;99.90;;;;;;5048524;28;20049;-64
2023/04/18 07:30:16;;;;;;;;;;;7.50;99.90;;;;;;5050186;28;19962;-63
2023/04/18 07:32:43;;;;;;;;;;;7.60;99.90;;;;;;5053408;28;20345;-63
2023/04/18 07:35:10;;;;;;;;;;;7.70;99.90;;;;;;5058265;28;19920;-62
2023/04/18 07:37:36;;;;;;;;;;;7.80;99.90;;;;;;5058003;28;20319;-63
2023/04/18 07:40:04;;;;;;;;;;;7.70;99.90;;;;;;5057674;28;20465;-62
2023/04/18 07:42:32;;;;;;;;;;;7.60;98.20;;;;;;5056848;28;19951;-62
2023/04/18 07:44:58;;;;;;;;;;;7.50;99.90;;;;;;5053781;28;20276;-63
2023/04/18 07:47:26;;;;;;;;;;;7.50;99.90;;;;;;5053793;28;19965;-63
2023/04/18 07:49:53;;;;;;;;;;;7.60;99.90;;;;;;5058050;28;19921;-63
2023/04/18 07:52:19;;;;;;;;;;;7.60;99.90;;;;;;5055564;28;19927;-64
2023/04/18 07:54:46;;;;;;;;;;;7.60;99.90;;;;;;5058233;28;20448;-64
2023/04/18 07:57:13;;;;;;;;;;;7.70;99.90;;;;;;5056426;28;20334;-66
2023/04/18 07:59:41;;;;;;;;;;;7.60;99.90;;;;;;5057620;28;20295;-63
2023/04/18 08:02:07;;;;;;;;;;;7.80;99.90;;;;;;5054804;28;19920;-65
2023/04/18 08:04:34;;;;;;;;;;;7.90;99.90;;;;;;5058470;28;19929;-63
2023/04/18 08:07:00;;;;;;;;;;;8.10;99.90;;;;;;5058388;28;19921;-64
2023/04/18 08:09:27;;;;;;;;;;;8.30;87.20;;;;;;5058013;28;19925;-65
2023/04/18 08:11:55;;;;;;;;;;;8.40;81.70;;;;;;5049517;28;19921;-65
2023/04/18 08:14:22;;;;;;;;;;;8.30;39.30;;;;;;5057826;28;19932;-63
2023/04/18 08:16:49;;;;;;;;;;;8.30;64.70;;;;;;5052478;28;19974;-63
2023/04/18 08:19:16;;;;;;;;;;;8.30;49.90;;;;;;5057195;28;19951;-63
2023/04/18 08:21:42;;;;;;;;;;;8.10;55.30;;;;;;5057619;28;19928;-65
2023/04/18 08:24:09;;;;;;;;;;;8.10;66.10;;;;;;5059374;28;19939;-65
2023/04/18 08:26:35;;;;;;;;;;;8.00;63.40;;;;;;5058088;28;19975;-63
2023/04/18 08:29:02;;;;;;;;;;;8.20;67.00;;;;;;5058366;28;19928;-65
2023/04/18 08:31:30;;;;;;;;;;;8.10;61.10;;;;;;5056962;28;19956;-66
2023/04/18 08:33:58;;;;;;;;;;;8.20;59.20;;;;;;5057848;28;19924;-64
2023/04/18 08:36:24;;;;;;;;;;;7.90;64.20;;;;;;5056883;28;19967;-63
2023/04/18 08:38:51;;;;;;;;;;;7.90;80.90;;;;;;5056925;28;19927;-64
2023/04/18 08:41:20;;;;;;;;;;;7.90;72.70;;;;;;5056738;28;19920;-65
2023/04/18 08:43:47;;;;;;;;;;;7.90;85.70;;;;;;5055909;28;19924;-64
2023/04/18 08:46:14;;;;;;;;;;;7.90;90.10;;;;;;5052598;28;19974;-65
2023/04/18 08:48:41;;;;;;;;;;;8.10;85.50;;;;;;5049435;28;19921;-64
2023/04/18 08:51:09;;;;;;;;;;;8.00;61.10;;;;;;5051466;28;19960;-69
2023/04/18 08:53:35;;;;;;;;;;;8.00;79.20;;;;;;5050408;28;20383;-65
2023/04/18 08:56:04;;;;;;;;;;;8.00;73.90;;;;;;5053974;28;19929;-65
2023/04/18 08:58:32;;;;;;;;;;;8.10;70.10;;;;;;5049181;28;20413;-65
2023/04/18 09:00:59;;;;;;;;;;;7.90;90.10;;;;;;5046299;28;20433;-65
2023/04/18 09:03:38;;;;;;;;;;;7.90;97.10;;;;;;5043381;28;20028;-63
2023/04/18 09:06:10;;;;;;;;;;;7.90;98.60;;;;;;5053371;28;19929;-64
2023/04/18 09:08:37;;;;;;;;;;;7.90;99.90;;;;;;5053705;28;20043;-65
2023/04/18 09:11:24;;;;;;;;;;;7.80;99.90;;;;;;5049480;28;19956;-62
2023/04/18 09:13:52;;;;;;;;;;;7.90;99.90;;;;;;5048538;28;20031;-65
2023/04/18 09:16:19;;;;;;;;;;;7.90;99.90;;;;;;5049886;28;19927;-65
2023/04/18 09:19:01;;;;;;;;;;;7.90;99.90;;;;;;5053816;28;19920;-64
2023/04/18 09:21:28;;;;;;;;;;;8.00;99.90;;;;;;5049937;28;19971;-63
2023/04/18 09:24:07;;;;;;;;;;;8.10;99.90;;;;;;5053717;28;19920;-65
2023/04/18 09:26:35;;;;;;;;;;;8.20;99.90;;;;;;5050952;28;19924;-66
2023/04/18 09:29:02;;;;;;;;;;;8.30;99.90;;;;;;5048518;28;19921;-65
2023/04/18 09:31:29;;;;;;;;;;;8.30;99.90;;;;;;5046891;28;19921;-65
2023/04/18 09:33:55;;;;;;;;;;;8.50;99.90;;;;;;5052871;28;19920;-65
2023/04/18 09:36:22;;;;;;;;;;;8.50;99.90;;;;;;5053864;28;20413;-64
2023/04/18 09:38:51;;;;;;;;;;;8.40;98.90;;;;;;5055277;28;20314;-65
2023/04/18 09:41:18;;;;;;;;;;;8.40;96.30;;;;;;5045646;28;19970;-64
2023/04/18 09:43:45;;;;;;;;;;;8.40;99.90;;;;;;5053878;28;19924;-62
2023/04/18 09:46:12;;;;;;;;;;;8.40;95.60;;;;;;5049180;28;19927;-64
2023/04/18 09:48:39;;;;;;;;;;;8.40;99.90;;;;;;5053463;28;19920;-63
2023/04/18 09:51:06;;;;;;;;;;;9.00;99.90;;;;;;5052516;28;19971;-65
2023/04/18 09:53:34;;;;;;;;;;;8.60;99.90;;;;;;5049607;28;20921;-63
2023/04/18 09:56:03;;;;;;;;;;;8.70;98.90;;;;;;5052813;28;19921;-64
2023/04/18 09:58:32;;;;;;;;;;;8.70;97.80;;;;;;5054312;28;19982;-65
2023/04/18 10:00:58;;;;;;;;;;;8.90;94.90;;;;;;5049695;28;20509;-64
2023/04/18 10:03:27;;;;;;;;;;;8.90;82.00;;;;;;5051400;28;19920;-64
2023/04/18 10:05:54;;;;;;;;;;;9.00;75.30;;;;;;5055988;28;19924;-66
2023/04/18 10:08:22;;;;;;;;;;;9.10;74.90;;;;;;5055650;28;20359;-66
2023/04/18 10:10:49;;;;;;;;;;;9.10;56.00;;;;;;5055244;28;19921;-65
2023/04/18 10:13:18;;;;;;;;;;;8.90;86.80;;;;;;5048112;28;19982;-64
2023/04/18 10:15:44;;;;;;;;;;;9.00;76.90;;;;;;5045778;28;19924;-65
2023/04/18 10:18:14;;;;;;;;;;;9.10;59.50;;;;;;5052108;28;19921;-65
2023/04/18 10:20:41;;;;;;;;;;;9.20;59.70;;;;;;5053064;28;19924;-66
2023/04/18 10:23:23;;;;;;;;;;;9.40;28.10;;;;;;5054606;28;19921;-65
2023/04/18 10:25:50;;;;;;;;;;;9.50;35.70;;;;;;5042663;28;19921;-68
2023/04/18 10:28:20;;;;;;;;;;;9.60;16.30;;;;;;5052975;28;19927;-68
2023/04/18 10:30:56;;;;;;;;;;;10.00;2.40;;;;;;5045961;28;19920;-66
2023/04/18 10:33:24;;;;;;;;;;;10.20;1.00;;;;;;5051692;28;19951;-67
2023/04/18 10:35:58;;;;;;;;;;;10.30;1.00;;;;;;5052410;28;19925;-66
2023/04/18 10:38:25;;;;;;;;;;;10.30;1.00;;;;;;5044633;28;19920;-66
2023/04/18 10:40:51;;;;;;;;;;;10.10;1.00;;;;;;5052272;28;19952;-63
2023/04/18 10:43:19;;;;;;;;;;;10.10;1.00;;;;;;5047183;28;20346;-65
2023/04/18 10:46:06;;;;;;;;;;;10.00;1.00;;;;;;5048219;28;19936;-65
2023/04/18 10:48:34;;;;;;;;;;;10.20;1.00;;;;;;5047705;28;20387;-66
2023/04/18 10:51:14;;;;;;;;;;;10.50;1.00;;;;;;5051639;28;19967;-65
2023/04/18 10:53:46;;;;;;;;;;;10.70;1.00;;;;;;5049067;28;20111;-65
2023/04/18 10:56:13;;;;;;;;;;;10.60;1.00;;;;;;5045163;28;19979;-65
2023/04/18 10:58:41;;;;;;;;;;;10.60;1.00;;;;;;5051535;28;19920;-64
2023/04/18 11:01:09;;;;;;;;;;;10.70;1.00;;;;;;5050446;28;19973;-64
2023/04/18 11:03:36;;;;;;;;;;;10.70;1.00;;;;;;5049572;28;19935;-62
2023/04/18 11:06:03;;;;;;;;;;;10.80;1.00;;;;;;5050895;28;19929;-64
2023/04/18 11:08:30;;;;;;;;;;;11.00;1.00;;;;;;5050958;28;20372;-64
2023/04/18 11:10:56;;;;;;;;;;;11.00;1.00;;;;;;5050393;28;19924;-64
2023/04/18 11:13:23;;;;;;;;;;;11.00;1.00;;;;;;5047818;28;19924;-65
2023/04/18 11:15:51;;;;;;;;;;;11.20;1.00;;;;;;5047249;28;19925;-68
2023/04/18 11:18:17;;;;;;;;;;;11.50;1.00;;;;;;5044295;28;19921;-63
2023/04/18 11:20:46;;;;;;;;;;;11.20;16.70;;;;;;5050870;28;20342;-63
2023/04/18 11:23:18;;;;;;;;;;;11.20;96.60;;;;;;5047957;28;19983;-65
2023/04/18 11:25:45;;;;;;;;;;;11.20;1.00;;;;;;5052789;28;19921;-64
2023/04/18 11:28:12;;;;;;;;;;;11.00;4.50;;;;;;5049951;28;19921;-67
2023/04/18 11:30:40;;;;;;;;;;;10.90;99.90;;;;;;5046761;28;19983;-66
2023/04/18 11:33:09;;;;;;;;;;;11.10;6.20;;;;;;5050842;28;19948;-65
2023/04/18 11:35:37;;;;;;;;;;;11.10;70.90;;;;;;5051353;28;19920;-64
2023/04/18 11:38:04;;;;;;;;;;;11.20;1.00;;;;;;5050622;28;20405;-65
2023/04/18 11:40:31;;;;;;;;;;;11.40;33.90;;;;;;5047258;28;20341;-64
2023/04/18 11:43:00;;;;;;;;;;;11.40;15.60;;;;;;5050363;28;19920;-64
2023/04/18 11:45:27;;;;;;;;;;;11.20;99.90;;;;;;5043003;28;19966;-66
2023/04/18 11:47:55;;;;;;;;;;;11.10;99.90;;;;;;5045044;28;19925;-67
2023/04/18 11:50:24;;;;;;;;;;;11.30;99.90;;;;;;5051360;28;19978;-66
2023/04/18 11:52:51;;;;;;;;;;;11.30;19.20;;;;;;5051597;28;19921;-65
2023/04/18 11:55:20;;;;;;;;;;;11.70;99.90;;;;;;5046897;28;19920;-64
2023/04/18 11:57:50;;;;;;;;;;;10.80;1.00;;;;;;5046965;28;19927;-67
2023/04/18 12:00:19;;;;;;;;;;;10.70;75.90;;;;;;5050776;28;19921;-65
2023/04/18 12:02:46;;;;;;;;;;;10.80;79.10;;;;;;5051523;28;19927;-64
2023/04/18 12:05:23;;;;;;;;;;;10.70;24.70;;;;;;5051336;28;19920;-63
2023/04/18 12:07:51;;;;;;;;;;;11.00;1.00;;;;;;5048948;28;20276;-63
2023/04/18 12:10:24;;;;;;;22.88;15.20;;;11.20;99.90;;;;;;5046633;28;20424;-64
2023/04/18 12:12:52;;;;;;;18.52;14.88;;;11.50;99.90;;;;;;5049856;28;20467;-66
2023/04/18 12:15:22;;;;;;;17.17;13.82;;;11.80;1.00;;;;;;5045044;28;20421;-66
2023/04/18 12:17:50;;;;;;;17.52;14.38;;;11.80;1.00;;;;;;5052189;28;20452;-65
2023/04/18 12:20:17;;;;;;;17.80;12.70;;;12.00;1.00;;;;;;5053376;28;20838;-65
2023/04/18 12:22:46;;;;;;;19.17;14.30;;;12.40;99.90;;;;;;5053528;28;20413;-64
2023/04/18 12:25:18;;;;;;;19.60;12.60;;;12.60;1.00;;;;;;5054751;28;20423;-64
2023/04/18 12:27:56;;;;;;;17.23;14.67;;;12.70;21.70;;;;;;5052561;28;20503;-64
2023/04/18 12:30:25;;;;;;;17.58;13.13;;;12.30;99.90;;;;;;5042575;28;20422;-65
2023/04/18 12:32:53;;;;;;;18.40;14.45;;;12.50;1.00;;;;;;5052105;28;20439;-66
2023/04/18 12:35:21;;;;;;;17.45;12.55;;;12.30;1.00;;;;;;5051968;28;20835;-64
2023/04/18 12:37:48;;;;;;;15.50;13.00;;;12.20;1.00;;;;;;5052472;28;20413;-65
2023/04/18 12:40:17;;;;;;;17.25;13.60;;;11.90;1.00;;;;;;5048764;28;20817;-65
2023/04/18 12:42:45;;;;;;;18.58;14.32;;;12.10;1.00;;;;;;5052583;28;20413;-66
2023/04/18 12:45:13;;;;;;;21.30;15.10;;;12.40;1.00;;;;;;5048135;28;20815;-65
2023/04/18 12:47:40;;;;;;;20.48;14.27;;;12.50;1.00;;;;;;5051786;28;20843;-64
2023/04/18 12:50:09;;;;;;;18.73;13.95;;;12.20;1.00;;;;;;5052762;28;20823;-66
2023/04/18 12:52:38;;;;;;;18.23;14.55;;;12.10;1.00;;;;;;5048915;28;20421;-65
2023/04/18 12:55:06;;;;;;;21.20;15.10;;;11.90;1.00;;;;;;5053372;28;20470;-66
2023/04/18 12:57:35;;;;;;;18.02;13.93;;;11.80;1.00;;;;;;5040268;28;20463;-62
2023/04/18 13:00:04;;;;;;;15.85;11.57;;;11.50;45.90;;;;;;5050429;28;20469;-63
2023/04/18 13:02:33;;;;;;;17.33;13.48;;;11.70;1.00;;;;;;5048691;28;20447;-65
2023/04/18 13:04:59;;;;;;;19.90;15.65;;;11.50;1.00;;;;;;5051752;28;20422;-67
2023/04/18 13:07:26;;;;;;;20.30;15.30;;;11.50;99.90;;;;;;5051791;28;20950;-66
2023/04/18 13:09:53;;;;;;;17.40;14.30;;;11.80;99.90;;;;;;5049201;28;20451;-64
2023/04/18 13:12:19;;;;;;;19.33;14.63;;;12.00;1.00;;;;;;5051650;28;20414;-63
2023/04/18 13:14:47;;;;;;;18.10;14.00;;;12.00;1.00;;;;;;5050678;28;20425;-64
2023/04/18 13:17:15;;;;;;;18.90;13.75;;;12.20;1.00;;;;;;5050154;28;20421;-64
2023/04/18 13:19:41;;;;;;;19.35;15.68;;;11.90;1.00;;;;;;5046731;28;20439;-65
2023/04/18 13:22:08;;;;;;;19.67;15.83;;;12.00;1.00;;;;;;5049273;28;20418;-65
2023/04/18 13:24:35;;;;;;;17.77;14.18;;;12.00;1.00;;;;;;5050385;28;20438;-66
2023/04/18 13:27:09;;;;;;;18.27;15.27;;;12.30;1.00;;;;;;5050130;28;20491;-65
2023/04/18 13:29:36;;;;;;;18.20;15.27;;;12.00;99.90;;;;;;5050514;28;20440;-65
2023/04/18 13:32:04;;;;;;;20.17;15.02;;;12.20;1.00;;;;;;5051761;28;20437;-65
2023/04/18 13:34:30;;;;;;;18.08;15.30;;;12.60;99.90;;;;;;5047844;28;20487;-65
2023/04/18 13:36:57;;;;;;;16.15;13.50;;;13.00;1.00;;;;;;5050403;28;20486;-65
2023/04/18 13:39:24;;;;;;;16.42;13.98;;;13.20;99.90;;;;;;5051585;28;20409;-66
2023/04/18 13:41:50;;;;;;;15.20;13.55;;;13.10;99.90;;;;;;5049315;28;20504;-66
2023/04/18 13:44:17;;;;;;;18.70;14.50;;;13.00;1.00;;;;;;5050718;28;20830;-65
2023/04/18 13:46:44;;;;;;;17.92;13.85;;;13.20;70.60;;;;;;5048592;28;20427;-65
2023/04/18 13:49:12;;;;;;;20.63;15.82;;;13.40;1.00;;;;;;5050174;28;20459;-65
2023/04/18 13:51:39;;;;;;;20.58;15.90;;;13.30;1.00;;;;;;5051926;28;20509;-64
2023/04/18 13:54:05;;;;;;;19.40;14.63;;;13.10;99.90;;;;;;5051582;28;20547;-65
2023/04/18 13:56:32;;;;;;;19.17;14.93;;;12.90;1.00;;;;;;5045775;28;20429;-65
2023/04/18 13:58:59;;;;;;;16.75;13.77;;;12.60;99.90;;;;;;5051612;28;20409;-64
2023/04/18 14:01:26;;;;;;;18.65;15.13;;;12.90;59.00;;;;;;5048783;28;20429;-65
2023/04/18 14:03:53;;;;;;;17.48;14.43;;;12.90;99.90;;;;;;5051038;28;20420;-65
2023/04/18 14:06:21;;;;;;;18.25;15.25;;;13.20;18.90;;;;;;5050774;28;20420;-65
2023/04/18 14:08:49;;;;;;;16.38;12.68;;;13.30;1.00;;;;;;5050867;28;20429;-64
2023/04/18 14:11:16;;;;;;;19.48;14.45;;;13.00;1.00;;;;;;5044696;28;20418;-65
2023/04/18 14:13:42;;;;;;;17.53;14.37;;;13.00;1.00;;;;;;5048989;28;20414;-63